createdAt,value
2022-10-05T00:01:35.530Z,101331.38
2022-10-05T00:04:22.493Z,101338.19
2022-10-05T00:07:16.708Z,101335.09
2022-10-05T00:09:46.497Z,101335.59
2022-10-05T00:12:17.193Z,101326.59
2022-10-05T00:14:46.413Z,101325.94
2022-10-05T00:17:24.343Z,101320.97
2022-10-05T00:19:54.685Z,101329.69
2022-10-05T00:22:33.710Z,101327.78
2022-10-05T00:25:02.819Z,101326.94
2022-10-05T00:27:37.480Z,101326.59
2022-10-05T00:32:34.180Z,101322.50
2022-10-05T00:35:01.000Z,101325.06
2022-10-05T00:37:27.815Z,101322.84
2022-10-05T00:39:54.705Z,101330.00
2022-10-05T00:42:51.961Z,101323.69
2022-10-05T00:45:48.538Z,101329.81
2022-10-05T00:48:48.495Z,101324.72
2022-10-05T00:51:28.834Z,101326.59
2022-10-05T00:54:36.761Z,101324.22
2022-10-05T00:57:27.741Z,101316.34
2022-10-05T01:00:07.828Z,101315.31
2022-10-05T01:03:19.271Z,101307.16
2022-10-05T01:06:14.983Z,101306.97
2022-10-05T01:09:07.904Z,101300.31
2022-10-05T01:11:49.706Z,101312.41
2022-10-05T01:14:30.153Z,101302.31
2022-10-05T01:17:20.469Z,101303.66
2022-10-05T01:20:39.484Z,101288.94
2022-10-05T01:23:46.157Z,101279.84
2022-10-05T01:27:00.975Z,101286.81
2022-10-05T01:30:12.207Z,101283.50
2022-10-05T01:32:56.839Z,101276.41
2022-10-05T01:35:47.937Z,101263.72
2022-10-05T01:38:27.995Z,101265.47
2022-10-05T01:41:31.479Z,101270.22
2022-10-05T01:44:05.828Z,101265.63
2022-10-05T01:47:21.905Z,101265.31
2022-10-05T01:50:25.345Z,101263.34
2022-10-05T01:53:42.441Z,101251.03
2022-10-05T01:56:32.924Z,101249.31
2022-10-05T01:59:12.356Z,101245.50
2022-10-05T02:02:20.571Z,101239.88
2022-10-05T02:05:05.441Z,101230.13
2022-10-05T02:08:11.027Z,101232.31
2022-10-05T02:10:46.572Z,101236.97
2022-10-05T02:13:21.609Z,101238.06
2022-10-05T02:16:07.532Z,101229.50
2022-10-05T02:18:47.409Z,101237.25
2022-10-05T02:21:14.952Z,101234.06
2022-10-05T02:23:44.992Z,101234.41
2022-10-05T02:26:15.003Z,101243.09
2022-10-05T02:28:47.072Z,101241.84
2022-10-05T02:31:19.891Z,101244.34
2022-10-05T02:33:46.802Z,101241.03
2022-10-05T02:36:42.048Z,101238.19
2022-10-05T02:39:34.964Z,101235.88
2022-10-05T02:42:49.423Z,101239.38
2022-10-05T02:46:02.567Z,101231.81
2022-10-05T02:48:55.098Z,101230.13
2022-10-05T02:51:52.927Z,101225.94
2022-10-05T02:54:58.668Z,101237.00
2022-10-05T02:57:39.292Z,101226.94
2022-10-05T03:00:06.241Z,101230.16
2022-10-05T03:02:48.455Z,101221.34
2022-10-05T03:05:35.816Z,101212.38
2022-10-05T03:08:16.621Z,101215.66
2022-10-05T03:11:18.631Z,101216.44
2022-10-05T03:14:22.112Z,101207.41
2022-10-05T03:17:00.981Z,101207.03
2022-10-05T03:19:59.410Z,101203.13
2022-10-05T03:22:52.014Z,101199.34
2022-10-05T03:25:58.768Z,101193.28
2022-10-05T03:29:00.217Z,101186.72
2022-10-05T03:31:44.256Z,101178.28
2022-10-05T03:34:37.006Z,101181.44
2022-10-05T03:37:22.684Z,101187.63
2022-10-05T03:40:07.879Z,101179.97
2022-10-05T03:43:16.495Z,101188.72
2022-10-05T03:46:05.056Z,101179.50
2022-10-05T03:49:04.886Z,101168.91
2022-10-05T03:51:36.139Z,101169.09
2022-10-05T03:54:19.686Z,101168.69
2022-10-05T03:57:27.128Z,101163.22
2022-10-05T04:00:06.467Z,101168.06
2022-10-05T04:02:48.288Z,101167.81
2022-10-05T04:05:21.841Z,101164.13
2022-10-05T04:08:12.362Z,101156.25
2022-10-05T04:10:43.647Z,101170.53
2022-10-05T04:13:20.686Z,101174.88
2022-10-05T04:16:04.492Z,101158.16
2022-10-05T04:18:38.852Z,101152.91
2022-10-05T04:21:31.399Z,101156.34
2022-10-05T04:24:34.197Z,101146.34
2022-10-05T04:27:11.757Z,101146.91
2022-10-05T04:29:51.734Z,101155.16
2022-10-05T04:32:47.269Z,101153.25
2022-10-05T04:35:29.998Z,101156.66
2022-10-05T04:38:27.436Z,101164.47
2022-10-05T04:41:06.294Z,101158.06
2022-10-05T04:44:14.181Z,101157.13
2022-10-05T04:47:22.508Z,101160.59
2022-10-05T04:50:10.733Z,101158.66
2022-10-05T04:53:07.409Z,101165.22
2022-10-05T04:55:56.608Z,101159.63
2022-10-05T04:59:14.591Z,101148.13
2022-10-05T05:02:04.667Z,101151.63
2022-10-05T05:05:05.914Z,101142.72
2022-10-05T05:08:19.982Z,101143.59
2022-10-05T05:11:29.607Z,101145.00
2022-10-05T05:14:13.334Z,101147.63
2022-10-05T05:16:42.011Z,101146.16
2022-10-05T05:19:46.301Z,101148.03
2022-10-05T05:23:05.932Z,101145.69
2022-10-05T05:26:09.954Z,101156.22
2022-10-05T05:29:37.714Z,101155.25
2022-10-05T05:32:39.291Z,101155.63
2022-10-05T05:35:30.280Z,101158.28
2022-10-05T05:38:20.887Z,101166.38
2022-10-05T05:40:54.687Z,101152.28
2022-10-05T05:44:01.998Z,101157.03
2022-10-05T05:47:02.329Z,101144.94
2022-10-05T05:49:53.474Z,101143.31
2022-10-05T05:52:39.311Z,101143.91
2022-10-05T05:55:24.403Z,101150.22
2022-10-05T05:58:04.374Z,101149.75
2022-10-05T06:00:55.836Z,101150.59
2022-10-05T06:03:38.823Z,101141.06
2022-10-05T06:06:17.276Z,101143.56
2022-10-05T06:09:03.578Z,101135.50
2022-10-05T06:11:41.320Z,101136.41
2022-10-05T06:14:29.031Z,101143.78
2022-10-05T06:17:18.066Z,101132.22
2022-10-05T06:19:50.056Z,101147.16
2022-10-05T06:22:28.675Z,101151.75
2022-10-05T06:25:20.952Z,101150.13
2022-10-05T06:28:16.113Z,101153.78
2022-10-05T06:31:29.740Z,101147.56
2022-10-05T06:34:35.635Z,101145.66
2022-10-05T06:37:14.438Z,101142.28
2022-10-05T06:40:08.339Z,101143.38
2022-10-05T06:42:57.907Z,101138.59
2022-10-05T06:45:54.499Z,101138.75
2022-10-05T06:48:54.791Z,101138.53
2022-10-05T06:51:38.916Z,101144.09
2022-10-05T06:54:35.461Z,101131.41
2022-10-05T06:57:16.162Z,101121.47
2022-10-05T07:00:25.225Z,101135.06
2022-10-05T07:03:03.655Z,101121.44
2022-10-05T07:05:46.806Z,101119.34
2022-10-05T07:08:33.435Z,101127.44
2022-10-05T07:11:52.777Z,101125.94
2022-10-05T07:15:16.458Z,101126.13
2022-10-05T07:18:13.335Z,101131.59
2022-10-05T07:20:50.499Z,101132.34
2022-10-05T07:23:28.643Z,101130.34
2022-10-05T07:26:18.535Z,101138.06
2022-10-05T07:29:12.818Z,101141.66
2022-10-05T07:32:04.205Z,101130.72
2022-10-05T07:35:04.137Z,101130.94
2022-10-05T07:37:54.416Z,101133.56
2022-10-05T07:40:39.121Z,101119.50
2022-10-05T07:44:02.344Z,101136.75
2022-10-05T07:46:51.141Z,101126.47
2022-10-05T07:49:52.151Z,101126.09
2022-10-05T07:52:39.600Z,101132.84
2022-10-05T07:55:23.495Z,101126.28
2022-10-05T07:58:19.558Z,101122.50
2022-10-05T08:00:59.390Z,101117.81
2022-10-05T08:04:00.200Z,101133.75
2022-10-05T08:06:47.563Z,101138.50
2022-10-05T08:09:45.404Z,101143.34
2022-10-05T08:12:24.254Z,101138.13
2022-10-05T08:15:14.413Z,101132.13
2022-10-05T08:18:11.676Z,101130.72
2022-10-05T08:20:57.150Z,101138.00
2022-10-05T08:23:49.653Z,101128.16
2022-10-05T08:26:37.006Z,101135.34
2022-10-05T08:29:35.294Z,101124.81
2022-10-05T08:32:10.132Z,101131.69
2022-10-05T08:35:07.372Z,101125.03
2022-10-05T08:37:43.364Z,101138.91
2022-10-05T08:40:21.380Z,101129.16
2022-10-05T08:43:00.019Z,101137.34
2022-10-05T08:45:48.100Z,101132.31
2022-10-05T08:48:40.868Z,101132.00
2022-10-05T08:51:37.582Z,101130.84
2022-10-05T08:54:39.266Z,101137.28
2022-10-05T08:57:35.758Z,101133.03
2022-10-05T09:00:11.805Z,101124.75
2022-10-05T09:02:56.791Z,101126.66
2022-10-05T09:06:01.215Z,101120.19
2022-10-05T09:08:58.286Z,101129.53
2022-10-05T09:12:21.613Z,101119.97
2022-10-05T09:15:41.455Z,101126.97
2022-10-05T09:19:52.277Z,101127.31
2022-10-05T09:22:59.462Z,101124.59
2022-10-05T09:26:15.518Z,101124.84
2022-10-05T09:29:58.693Z,101126.28
2022-10-05T09:33:14.331Z,101113.50
2022-10-05T09:40:21.109Z,101131.22
2022-10-05T09:47:24.294Z,101115.41
2022-10-05T09:50:17.980Z,101114.31
2022-10-05T09:52:56.594Z,101109.75
2022-10-05T09:55:40.807Z,101106.31
2022-10-05T09:58:28.457Z,101103.78
2022-10-05T10:01:36.387Z,101100.41
2022-10-05T10:04:43.767Z,101100.38
2022-10-05T10:07:36.564Z,101105.03
2022-10-05T10:11:01.396Z,101101.22
2022-10-05T10:13:37.128Z,101095.72
2022-10-05T10:16:23.568Z,101083.50
2022-10-05T10:19:24.168Z,101092.25
2022-10-05T10:21:50.869Z,101089.66
2022-10-05T10:24:51.481Z,101083.13
2022-10-05T10:27:41.063Z,101094.34
2022-10-05T10:30:57.662Z,101105.03
2022-10-05T10:33:59.821Z,101075.66
2022-10-05T10:36:50.417Z,101092.31
2022-10-05T10:40:13.203Z,101089.63
2022-10-05T10:43:11.294Z,101089.84
2022-10-05T10:45:56.317Z,101090.16
2022-10-05T10:48:29.354Z,101087.66
2022-10-05T10:51:04.552Z,101086.03
2022-10-05T10:54:04.758Z,101081.16
2022-10-05T10:57:05.960Z,101074.41
2022-10-05T10:59:57.183Z,101084.56
2022-10-05T11:03:05.043Z,101078.38
2022-10-05T11:05:37.221Z,101081.34
2022-10-05T11:08:33.027Z,101075.72
2022-10-05T11:11:53.288Z,101067.00
2022-10-05T11:14:52.347Z,101070.00
2022-10-05T11:17:36.097Z,101060.28
2022-10-05T11:20:30.873Z,101059.69
2022-10-05T11:23:38.840Z,101064.47
2022-10-05T11:26:33.673Z,101061.38
2022-10-05T11:29:11.387Z,101052.69
2022-10-05T11:31:50.147Z,101053.97
2022-10-05T11:34:44.059Z,101044.25
2022-10-05T11:38:09.957Z,101054.59
2022-10-05T11:41:05.881Z,101048.91
2022-10-05T11:44:19.472Z,101048.81
2022-10-05T11:47:12.335Z,101045.81
2022-10-05T11:50:05.496Z,101046.97
2022-10-05T11:53:06.560Z,101033.81
2022-10-05T11:56:09.483Z,101030.31
2022-10-05T11:59:03.141Z,101030.72
2022-10-05T12:01:30.451Z,101029.91
2022-10-05T12:04:20.706Z,101026.72
2022-10-05T12:07:05.585Z,101019.88
2022-10-05T12:10:17.470Z,101022.09
2022-10-05T12:12:53.107Z,101015.28
2022-10-05T12:15:29.599Z,100998.63
2022-10-05T12:18:16.922Z,101008.88
2022-10-05T12:21:15.697Z,101000.19
2022-10-05T12:24:07.054Z,100990.47
2022-10-05T12:26:45.159Z,100995.91
2022-10-05T12:29:32.194Z,100983.59
2022-10-05T12:32:40.245Z,100999.66
2022-10-05T12:35:53.525Z,100985.81
2022-10-05T12:38:38.448Z,100985.66
2022-10-05T12:41:21.385Z,100988.19
2022-10-05T12:44:37.552Z,100983.44
2022-10-05T12:47:44.873Z,100989.72
2022-10-05T12:50:23.686Z,100980.22
2022-10-05T12:53:31.519Z,100988.28
2022-10-05T12:56:21.556Z,100977.16
2022-10-05T12:59:06.158Z,100970.03
2022-10-05T13:01:43.602Z,100977.53
2022-10-05T13:04:31.451Z,100967.41
2022-10-05T13:07:28.514Z,100957.69
2022-10-05T13:10:48.754Z,100964.97
2022-10-05T13:14:03.313Z,100969.13
2022-10-05T13:16:56.114Z,100962.38
2022-10-05T13:19:39.471Z,100950.28
2022-10-05T13:22:12.526Z,100953.84
2022-10-05T13:25:09.519Z,100952.50
2022-10-05T13:27:44.590Z,100941.78
2022-10-05T13:30:15.285Z,100935.13
2022-10-05T13:33:14.346Z,100936.75
2022-10-05T13:35:50.303Z,100929.72
2022-10-05T13:39:13.739Z,100948.59
2022-10-05T13:42:02.670Z,100934.53
2022-10-05T13:44:55.359Z,100928.28
2022-10-05T13:47:43.941Z,100922.81
2022-10-05T13:50:20.467Z,100916.09
2022-10-05T13:53:02.722Z,100915.63
2022-10-05T13:55:36.960Z,100911.06
2022-10-05T13:58:21.006Z,100916.94
2022-10-05T14:01:03.496Z,100912.53
2022-10-05T14:03:37.115Z,100906.22
2022-10-05T14:06:27.665Z,100904.69
2022-10-05T14:08:58.099Z,100902.38
2022-10-05T14:11:38.545Z,100896.13
2022-10-05T14:14:24.836Z,100896.97
2022-10-05T14:16:59.314Z,100893.47
2022-10-05T14:19:31.877Z,100890.75
2022-10-05T14:22:02.114Z,100891.56
2022-10-05T14:24:44.294Z,100896.19
2022-10-05T14:27:23.981Z,100896.47
2022-10-05T14:30:01.367Z,100894.44
2022-10-05T14:32:36.719Z,100892.88
2022-10-05T14:35:18.408Z,100885.53
2022-10-05T14:37:56.483Z,100895.47
2022-10-05T14:40:38.790Z,100890.03
2022-10-05T14:43:14.657Z,100894.06
2022-10-05T14:45:55.257Z,100896.03
2022-10-05T14:48:28.791Z,100906.38
2022-10-05T14:51:03.788Z,100907.31
2022-10-05T14:53:57.855Z,100902.53
2022-10-05T14:56:33.484Z,100901.41
2022-10-05T14:59:10.688Z,100902.59
2022-10-05T15:02:00.803Z,100903.22
2022-10-05T15:04:43.007Z,100901.00
2022-10-05T15:07:21.798Z,100906.81
2022-10-05T15:10:42.373Z,100900.50
2022-10-05T15:13:41.608Z,100895.94
2022-10-05T15:16:31.379Z,100898.19
2022-10-05T15:18:58.170Z,100899.44
2022-10-05T15:21:55.212Z,100898.91
2022-10-05T15:24:34.537Z,100908.41
2022-10-05T15:27:04.572Z,100889.09
2022-10-05T15:30:22.256Z,100897.28
2022-10-05T15:32:57.857Z,100902.63
2022-10-05T15:35:36.802Z,100886.63
2022-10-05T15:38:12.411Z,100897.44
2022-10-05T15:40:59.053Z,100889.28
2022-10-05T15:43:58.514Z,100872.53
2022-10-05T15:46:56.380Z,100869.72
2022-10-05T15:49:28.913Z,100877.75
2022-10-05T15:51:59.391Z,100864.44
2022-10-05T15:55:15.492Z,100870.09
2022-10-05T15:57:52.105Z,100867.56
2022-10-05T16:00:24.504Z,100876.19
2022-10-05T16:03:18.476Z,100880.41
2022-10-05T16:06:13.275Z,100882.22
2022-10-05T16:09:01.931Z,100870.44
2022-10-05T16:12:01.482Z,100862.53
2022-10-05T16:15:48.682Z,100857.03
2022-10-05T16:18:36.434Z,100854.28
2022-10-05T16:21:38.976Z,100854.00
2022-10-05T16:24:23.943Z,100859.59
2022-10-05T16:27:06.106Z,100863.38
2022-10-05T16:29:39.826Z,100869.53
2022-10-05T16:32:20.502Z,100867.41
2022-10-05T16:34:59.270Z,100871.69
2022-10-05T16:37:49.550Z,100862.19
2022-10-05T16:41:02.157Z,100866.28
2022-10-05T16:44:10.563Z,100868.59
2022-10-05T16:46:46.861Z,100861.41
2022-10-05T16:49:22.630Z,100853.78
2022-10-05T16:52:01.176Z,100853.38
2022-10-05T16:54:47.958Z,100856.75
2022-10-05T16:57:29.347Z,100858.69
2022-10-05T17:00:23.593Z,100856.41
2022-10-05T17:03:24.738Z,100867.59
2022-10-05T17:06:30.163Z,100873.72
2022-10-05T17:09:35.216Z,100875.41
2022-10-05T17:12:16.678Z,100873.72
2022-10-05T17:15:29.061Z,100892.09
2022-10-05T17:18:20.149Z,100888.50
2022-10-05T17:21:05.039Z,100901.16
2022-10-05T17:24:08.727Z,100897.78
2022-10-05T17:26:56.550Z,100902.44
2022-10-05T17:29:26.850Z,100903.66
2022-10-05T17:32:04.690Z,100906.19
2022-10-05T17:34:39.160Z,100910.88
2022-10-05T17:37:43.662Z,100907.91
2022-10-05T17:40:38.671Z,100921.84
2022-10-05T17:43:24.009Z,100928.13
2022-10-05T17:46:05.766Z,100923.88
2022-10-05T17:48:51.707Z,100928.75
2022-10-05T17:51:49.075Z,100926.84
2022-10-05T17:55:20.159Z,100931.50
2022-10-05T17:57:50.043Z,100933.56
2022-10-05T18:00:29.316Z,100930.97
2022-10-05T18:02:57.729Z,100940.09
2022-10-05T18:05:29.715Z,100935.22
2022-10-05T18:08:16.447Z,100933.75
2022-10-05T18:11:28.196Z,100940.06
2022-10-05T18:14:18.425Z,100936.66
2022-10-05T18:17:02.898Z,100935.19
2022-10-05T18:19:33.283Z,100937.75
2022-10-05T18:22:17.420Z,100935.06
2022-10-05T18:25:05.760Z,100925.13
2022-10-05T18:27:44.203Z,100930.41
2022-10-05T18:30:26.136Z,100928.50
2022-10-05T18:33:11.136Z,100923.84
2022-10-05T18:36:21.080Z,100928.91
2022-10-05T18:38:58.320Z,100920.88
2022-10-05T18:42:01.816Z,100915.44
2022-10-05T18:44:47.312Z,100923.41
2022-10-05T18:47:23.196Z,100920.22
2022-10-05T18:50:17.114Z,100905.22
2022-10-05T18:52:50.104Z,100908.13
2022-10-05T18:55:47.270Z,100911.50
2022-10-05T18:58:26.315Z,100907.66
2022-10-05T19:01:29.411Z,100901.53
2022-10-05T19:04:41.151Z,100907.13
2022-10-05T19:07:19.471Z,100898.22
2022-10-05T19:10:11.757Z,100897.03
2022-10-05T19:12:56.422Z,100895.00
2022-10-05T19:15:44.142Z,100895.59
2022-10-05T19:19:09.993Z,100894.75
2022-10-05T19:22:11.783Z,100894.41
2022-10-05T19:25:10.862Z,100895.59
2022-10-05T19:28:10.962Z,100905.25
2022-10-05T19:30:55.135Z,100900.47
2022-10-05T19:33:51.277Z,100890.88
2022-10-05T19:36:18.205Z,100900.88
2022-10-05T19:39:21.824Z,100906.00
2022-10-05T19:42:09.794Z,100901.16
2022-10-05T19:44:45.633Z,100900.81
2022-10-05T19:48:02.655Z,100910.91
2022-10-05T19:50:33.616Z,100902.06
2022-10-05T19:53:12.618Z,100916.53
2022-10-05T19:55:47.029Z,100912.56
2022-10-05T19:58:22.074Z,100903.38
2022-10-05T20:01:06.739Z,100919.38
2022-10-05T20:03:37.937Z,100911.56
2022-10-05T20:06:07.967Z,100919.13
2022-10-05T20:08:43.801Z,100918.53
2022-10-05T20:11:27.210Z,100914.66
2022-10-05T20:13:54.865Z,100925.63
2022-10-05T20:16:55.582Z,100921.66
2022-10-05T20:19:50.079Z,100918.59
2022-10-05T20:22:35.722Z,100930.06
2022-10-05T20:25:08.614Z,100932.03
2022-10-05T20:27:56.029Z,100931.66
2022-10-05T20:30:28.880Z,100945.63
2022-10-05T20:32:59.554Z,100935.56
2022-10-05T20:35:30.838Z,100923.78
2022-10-05T20:38:00.969Z,100931.34
2022-10-05T20:40:30.135Z,100926.69
2022-10-05T20:42:58.339Z,100933.00
2022-10-05T20:45:36.417Z,100936.00
2022-10-05T20:48:06.550Z,100935.59
2022-10-05T20:50:33.963Z,100950.97
2022-10-05T20:53:06.343Z,100937.28
2022-10-05T20:55:36.860Z,100933.50
2022-10-05T20:58:11.016Z,100927.56
2022-10-05T21:00:56.308Z,100923.13
2022-10-05T21:03:23.232Z,100922.53
2022-10-05T21:05:50.378Z,100941.94
2022-10-05T21:08:17.780Z,100951.81
2022-10-05T21:10:50.411Z,100942.31
2022-10-05T21:13:18.434Z,100948.56
2022-10-05T21:15:45.239Z,100950.38
2022-10-05T21:18:17.165Z,100944.69
2022-10-05T21:20:50.036Z,100951.59
2022-10-05T21:23:19.444Z,100945.72
2022-10-05T21:25:48.337Z,100944.09
2022-10-05T21:28:15.232Z,100950.63
2022-10-05T21:30:42.136Z,100944.44
2022-10-05T21:33:11.115Z,100946.78
2022-10-05T21:35:38.892Z,100954.59
2022-10-05T21:38:05.753Z,100956.28
2022-10-05T21:40:32.702Z,100970.59
2022-10-05T21:42:59.558Z,100979.00
2022-10-05T21:45:28.423Z,100959.66
2022-10-05T21:47:57.484Z,100970.63
2022-10-05T21:50:28.060Z,100969.75
2022-10-05T21:52:59.992Z,100967.66
2022-10-05T21:55:29.400Z,100979.06
2022-10-05T21:57:57.951Z,100970.63
2022-10-05T22:00:24.778Z,100980.28
2022-10-05T22:02:51.725Z,100977.97
2022-10-05T22:05:21.272Z,100990.19
2022-10-05T22:07:48.359Z,100982.00
2022-10-05T22:10:17.724Z,100996.56
2022-10-05T22:12:47.241Z,100997.00
2022-10-05T22:15:14.689Z,100995.09
2022-10-05T22:17:42.248Z,100993.00
2022-10-05T22:20:14.454Z,101000.19
2022-10-05T22:22:41.340Z,101003.75
2022-10-05T22:25:11.141Z,101011.13
2022-10-05T22:27:38.074Z,101012.16
2022-10-05T22:30:08.858Z,101013.53
2022-10-05T22:32:35.677Z,101017.09
2022-10-05T22:35:02.505Z,101009.94
2022-10-05T22:37:34.885Z,101010.38
2022-10-05T22:40:01.704Z,101018.88
2022-10-05T22:42:31.477Z,101025.56
2022-10-05T22:45:00.624Z,101027.28
2022-10-05T22:47:29.898Z,101028.59
2022-10-05T22:49:56.744Z,101032.34
2022-10-05T22:52:26.600Z,101032.38
2022-10-05T22:54:53.487Z,101036.59
2022-10-05T22:57:20.388Z,101037.66
2022-10-05T22:59:50.428Z,101039.81
2022-10-05T23:02:18.661Z,101031.56
2022-10-05T23:04:48.722Z,101040.22
2022-10-05T23:07:15.540Z,101040.88
2022-10-05T23:09:42.519Z,101035.34
2022-10-05T23:12:11.617Z,101046.97
2022-10-05T23:14:42.870Z,101051.41
2022-10-05T23:17:11.945Z,101044.47
2022-10-05T23:19:38.811Z,101049.94
2022-10-05T23:22:08.808Z,101045.50
2022-10-05T23:24:35.648Z,101056.28
2022-10-05T23:27:02.493Z,101061.13
2022-10-05T23:29:31.566Z,101061.97
2022-10-05T23:31:58.393Z,101060.72
2022-10-05T23:34:27.316Z,101077.59
2022-10-05T23:36:54.250Z,101075.28
2022-10-05T23:39:23.470Z,101074.47
2022-10-05T23:41:50.445Z,101084.16
2022-10-05T23:44:17.669Z,101075.75
2022-10-05T23:46:44.532Z,101081.44
2022-10-05T23:49:11.662Z,101100.25
2022-10-05T23:51:38.520Z,101137.63
2022-10-05T23:54:07.758Z,101158.25
2022-10-05T23:56:34.580Z,101182.56
2022-10-05T23:59:01.453Z,101199.41
